sensor_id;sensor_type;location;lat;lon;timestamp;P1;durP1;ratioP1;P2;durP2;ratioP2
18296;SDS011;18066;52.106;5.534;2022-07-30T00:00:05;6.82;;;4.10;;
18296;SDS011;18066;52.106;5.534;2022-07-30T00:02:33;5.22;;;4.25;;
18296;SDS011;18066;52.106;5.534;2022-07-30T00:05:00;12.35;;;5.53;;
18296;SDS011;18066;52.106;5.534;2022-07-30T00:07:27;9.77;;;5.60;;
18296;SDS011;18066;52.106;5.534;2022-07-30T00:09:54;9.00;;;5.38;;
18296;SDS011;18066;52.106;5.534;2022-07-30T00:12:22;8.85;;;5.03;;
18296;SDS011;18066;52.106;5.534;2022-07-30T00:14:49;9.93;;;5.13;;
18296;SDS011;18066;52.106;5.534;2022-07-30T00:17:15;6.72;;;4.35;;
18296;SDS011;18066;52.106;5.534;2022-07-30T00:19:42;5.97;;;4.80;;
18296;SDS011;18066;52.106;5.534;2022-07-30T00:22:09;7.15;;;4.45;;
18296;SDS011;18066;52.106;5.534;2022-07-30T00:24:35;5.60;;;3.88;;
18296;SDS011;18066;52.106;5.534;2022-07-30T00:27:02;7.28;;;3.80;;
18296;SDS011;18066;52.106;5.534;2022-07-30T00:29:31;5.80;;;3.67;;
18296;SDS011;18066;52.106;5.534;2022-07-30T00:31:57;8.63;;;4.00;;
18296;SDS011;18066;52.106;5.534;2022-07-30T00:34:24;4.95;;;3.13;;
18296;SDS011;18066;52.106;5.534;2022-07-30T00:36:51;3.08;;;2.55;;
18296;SDS011;18066;52.106;5.534;2022-07-30T00:39:17;3.55;;;3.15;;
18296;SDS011;18066;52.106;5.534;2022-07-30T00:41:54;5.88;;;3.20;;
18296;SDS011;18066;52.106;5.534;2022-07-30T00:44:22;4.63;;;3.67;;
18296;SDS011;18066;52.106;5.534;2022-07-30T00:46:50;4.13;;;3.28;;
18296;SDS011;18066;52.106;5.534;2022-07-30T00:49:17;5.50;;;3.80;;
18296;SDS011;18066;52.106;5.534;2022-07-30T00:51:44;5.50;;;3.30;;
18296;SDS011;18066;52.106;5.534;2022-07-30T00:54:11;5.78;;;3.67;;
18296;SDS011;18066;52.106;5.534;2022-07-30T00:56:39;4.03;;;3.30;;
18296;SDS011;18066;52.106;5.534;2022-07-30T00:59:06;4.95;;;2.95;;
18296;SDS011;18066;52.106;5.534;2022-07-30T01:01:33;5.22;;;3.35;;
18296;SDS011;18066;52.106;5.534;2022-07-30T01:04:02;7.75;;;3.10;;
18296;SDS011;18066;52.106;5.534;2022-07-30T01:06:32;3.38;;;2.70;;
18296;SDS011;18066;52.106;5.534;2022-07-30T01:08:58;2.90;;;2.10;;
18296;SDS011;18066;52.106;5.534;2022-07-30T01:11:26;2.95;;;2.60;;
18296;SDS011;18066;52.106;5.534;2022-07-30T01:14:03;7.30;;;4.32;;
18296;SDS011;18066;52.106;5.534;2022-07-30T01:16:31;7.20;;;3.72;;
18296;SDS011;18066;52.106;5.534;2022-07-30T01:18:58;5.80;;;2.92;;
18296;SDS011;18066;52.106;5.534;2022-07-30T01:21:47;4.20;;;3.33;;
18296;SDS011;18066;52.106;5.534;2022-07-30T01:24:21;4.18;;;3.20;;
18296;SDS011;18066;52.106;5.534;2022-07-30T01:26:53;3.85;;;3.30;;
18296;SDS011;18066;52.106;5.534;2022-07-30T01:29:21;5.43;;;3.28;;
18296;SDS011;18066;52.106;5.534;2022-07-30T01:31:49;3.97;;;3.05;;
18296;SDS011;18066;52.106;5.534;2022-07-30T01:34:23;3.22;;;2.47;;
18296;SDS011;18066;52.106;5.534;2022-07-30T01:36:51;4.35;;;2.28;;
18296;SDS011;18066;52.106;5.534;2022-07-30T01:39:18;4.80;;;2.97;;
18296;SDS011;18066;52.106;5.534;2022-07-30T01:41:45;4.50;;;3.00;;
18296;SDS011;18066;52.106;5.534;2022-07-30T01:44:17;3.88;;;2.70;;
18296;SDS011;18066;52.106;5.534;2022-07-30T01:46:44;4.55;;;3.35;;
18296;SDS011;18066;52.106;5.534;2022-07-30T01:49:12;3.83;;;2.50;;
18296;SDS011;18066;52.106;5.534;2022-07-30T01:51:41;3.92;;;2.60;;
18296;SDS011;18066;52.106;5.534;2022-07-30T01:54:08;5.68;;;3.30;;
18296;SDS011;18066;52.106;5.534;2022-07-30T01:56:37;5.13;;;3.13;;
18296;SDS011;18066;52.106;5.534;2022-07-30T01:59:06;5.10;;;2.90;;
18296;SDS011;18066;52.106;5.534;2022-07-30T02:01:35;4.05;;;2.70;;
18296;SDS011;18066;52.106;5.534;2022-07-30T02:04:03;3.17;;;2.40;;
18296;SDS011;18066;52.106;5.534;2022-07-30T02:06:31;4.28;;;3.00;;
18296;SDS011;18066;52.106;5.534;2022-07-30T02:09:00;2.13;;;1.92;;
18296;SDS011;18066;52.106;5.534;2022-07-30T02:11:29;2.90;;;1.95;;
18296;SDS011;18066;52.106;5.534;2022-07-30T02:14:20;2.40;;;2.20;;
18296;SDS011;18066;52.106;5.534;2022-07-30T02:16:53;3.78;;;2.88;;
18296;SDS011;18066;52.106;5.534;2022-07-30T02:19:22;4.20;;;3.30;;
18296;SDS011;18066;52.106;5.534;2022-07-30T02:21:53;6.40;;;3.30;;
18296;SDS011;18066;52.106;5.534;2022-07-30T02:24:25;4.50;;;3.17;;
18296;SDS011;18066;52.106;5.534;2022-07-30T02:26:55;4.60;;;3.15;;
18296;SDS011;18066;52.106;5.534;2022-07-30T02:29:26;4.00;;;3.03;;
18296;SDS011;18066;52.106;5.534;2022-07-30T02:31:55;3.65;;;3.15;;
18296;SDS011;18066;52.106;5.534;2022-07-30T02:34:23;3.50;;;2.97;;
18296;SDS011;18066;52.106;5.534;2022-07-30T02:36:51;4.28;;;2.53;;
18296;SDS011;18066;52.106;5.534;2022-07-30T02:39:19;2.50;;;2.30;;
18296;SDS011;18066;52.106;5.534;2022-07-30T02:41:47;3.58;;;2.75;;
18296;SDS011;18066;52.106;5.534;2022-07-30T02:44:15;2.25;;;2.05;;
18296;SDS011;18066;52.106;5.534;2022-07-30T02:46:44;4.93;;;2.85;;
18296;SDS011;18066;52.106;5.534;2022-07-30T02:49:14;4.28;;;2.65;;
18296;SDS011;18066;52.106;5.534;2022-07-30T02:51:45;4.85;;;3.03;;
18296;SDS011;18066;52.106;5.534;2022-07-30T02:54:13;3.95;;;3.10;;
18296;SDS011;18066;52.106;5.534;2022-07-30T02:56:41;3.50;;;3.13;;
18296;SDS011;18066;52.106;5.534;2022-07-30T02:59:09;5.07;;;3.20;;
18296;SDS011;18066;52.106;5.534;2022-07-30T03:01:37;4.30;;;3.22;;
18296;SDS011;18066;52.106;5.534;2022-07-30T03:04:06;8.63;;;3.13;;
18296;SDS011;18066;52.106;5.534;2022-07-30T03:06:35;3.90;;;2.38;;
18296;SDS011;18066;52.106;5.534;2022-07-30T03:09:04;3.65;;;2.50;;
18296;SDS011;18066;52.106;5.534;2022-07-30T03:11:32;2.55;;;1.92;;
18296;SDS011;18066;52.106;5.534;2022-07-30T03:14:00;3.15;;;1.95;;
18296;SDS011;18066;52.106;5.534;2022-07-30T03:16:27;2.67;;;1.90;;
18296;SDS011;18066;52.106;5.534;2022-07-30T03:18:55;3.33;;;1.85;;
18296;SDS011;18066;52.106;5.534;2022-07-30T03:21:26;2.63;;;1.75;;
18296;SDS011;18066;52.106;5.534;2022-07-30T03:23:58;2.45;;;2.03;;
18296;SDS011;18066;52.106;5.534;2022-07-30T03:26:27;4.90;;;2.60;;
18296;SDS011;18066;52.106;5.534;2022-07-30T03:28:55;3.03;;;2.53;;
18296;SDS011;18066;52.106;5.534;2022-07-30T03:31:22;2.47;;;2.28;;
18296;SDS011;18066;52.106;5.534;2022-07-30T03:33:50;2.22;;;2.00;;
18296;SDS011;18066;52.106;5.534;2022-07-30T03:36:17;2.55;;;2.17;;
18296;SDS011;18066;52.106;5.534;2022-07-30T03:38:44;2.40;;;2.20;;
18296;SDS011;18066;52.106;5.534;2022-07-30T03:41:14;3.53;;;2.90;;
18296;SDS011;18066;52.106;5.534;2022-07-30T03:43:42;3.10;;;2.80;;
18296;SDS011;18066;52.106;5.534;2022-07-30T03:46:10;5.68;;;3.00;;
18296;SDS011;18066;52.106;5.534;2022-07-30T03:48:38;5.38;;;3.03;;
18296;SDS011;18066;52.106;5.534;2022-07-30T03:51:06;2.57;;;2.10;;
18296;SDS011;18066;52.106;5.534;2022-07-30T03:53:34;4.35;;;2.80;;
18296;SDS011;18066;52.106;5.534;2022-07-30T03:56:01;3.53;;;2.28;;
18296;SDS011;18066;52.106;5.534;2022-07-30T03:58:29;2.10;;;1.60;;
18296;SDS011;18066;52.106;5.534;2022-07-30T04:00:56;2.35;;;2.00;;
18296;SDS011;18066;52.106;5.534;2022-07-30T04:03:23;4.38;;;2.45;;
18296;SDS011;18066;52.106;5.534;2022-07-30T04:05:51;2.13;;;1.92;;
18296;SDS011;18066;52.106;5.534;2022-07-30T04:08:18;2.08;;;1.88;;
18296;SDS011;18066;52.106;5.534;2022-07-30T04:10:45;3.57;;;2.00;;
18296;SDS011;18066;52.106;5.534;2022-07-30T04:13:12;3.47;;;2.20;;
18296;SDS011;18066;52.106;5.534;2022-07-30T04:15:42;2.85;;;2.30;;
18296;SDS011;18066;52.106;5.534;2022-07-30T04:18:14;6.22;;;2.50;;
18296;SDS011;18066;52.106;5.534;2022-07-30T04:20:43;4.60;;;1.77;;
18296;SDS011;18066;52.106;5.534;2022-07-30T04:23:13;2.05;;;1.90;;
18296;SDS011;18066;52.106;5.534;2022-07-30T04:25:40;1.97;;;1.87;;
18296;SDS011;18066;52.106;5.534;2022-07-30T04:28:09;2.72;;;2.00;;
18296;SDS011;18066;52.106;5.534;2022-07-30T04:30:36;2.67;;;2.27;;
18296;SDS011;18066;52.106;5.534;2022-07-30T04:33:05;3.20;;;2.65;;
18296;SDS011;18066;52.106;5.534;2022-07-30T04:35:33;4.30;;;3.03;;
18296;SDS011;18066;52.106;5.534;2022-07-30T04:38:00;6.13;;;3.67;;
18296;SDS011;18066;52.106;5.534;2022-07-30T04:40:28;5.65;;;3.80;;
18296;SDS011;18066;52.106;5.534;2022-07-30T04:42:55;4.75;;;3.50;;
18296;SDS011;18066;52.106;5.534;2022-07-30T04:45:22;5.07;;;3.40;;
18296;SDS011;18066;52.106;5.534;2022-07-30T04:47:49;4.70;;;3.57;;
18296;SDS011;18066;52.106;5.534;2022-07-30T04:50:19;9.10;;;4.57;;
18296;SDS011;18066;52.106;5.534;2022-07-30T04:52:47;9.10;;;4.63;;
18296;SDS011;18066;52.106;5.534;2022-07-30T04:55:15;8.52;;;5.22;;
18296;SDS011;18066;52.106;5.534;2022-07-30T04:57:43;8.07;;;4.68;;
18296;SDS011;18066;52.106;5.534;2022-07-30T05:00:13;14.13;;;5.55;;
18296;SDS011;18066;52.106;5.534;2022-07-30T05:02:40;8.43;;;6.32;;
18296;SDS011;18066;52.106;5.534;2022-07-30T05:05:09;7.30;;;5.90;;
18296;SDS011;18066;52.106;5.534;2022-07-30T05:07:38;13.68;;;7.15;;
18296;SDS011;18066;52.106;5.534;2022-07-30T05:10:06;8.68;;;6.95;;
18296;SDS011;18066;52.106;5.534;2022-07-30T05:12:34;9.55;;;6.65;;
18296;SDS011;18066;52.106;5.534;2022-07-30T05:15:01;10.50;;;7.22;;
18296;SDS011;18066;52.106;5.534;2022-07-30T05:17:28;12.75;;;7.70;;
18296;SDS011;18066;52.106;5.534;2022-07-30T05:19:55;11.95;;;7.75;;
18296;SDS011;18066;52.106;5.534;2022-07-30T05:22:22;8.88;;;7.07;;
18296;SDS011;18066;52.106;5.534;2022-07-30T05:24:52;13.90;;;8.00;;
18296;SDS011;18066;52.106;5.534;2022-07-30T05:27:19;12.52;;;8.52;;
18296;SDS011;18066;52.106;5.534;2022-07-30T05:29:46;12.18;;;8.32;;
18296;SDS011;18066;52.106;5.534;2022-07-30T05:32:13;13.65;;;9.65;;
18296;SDS011;18066;52.106;5.534;2022-07-30T05:34:39;12.80;;;8.90;;
18296;SDS011;18066;52.106;5.534;2022-07-30T05:37:06;12.93;;;8.85;;
18296;SDS011;18066;52.106;5.534;2022-07-30T05:39:33;12.77;;;8.75;;
18296;SDS011;18066;52.106;5.534;2022-07-30T05:42:01;13.35;;;9.45;;
18296;SDS011;18066;52.106;5.534;2022-07-30T05:44:28;14.68;;;9.85;;
18296;SDS011;18066;52.106;5.534;2022-07-30T05:46:54;19.10;;;10.05;;
18296;SDS011;18066;52.106;5.534;2022-07-30T05:49:21;17.08;;;8.95;;
18296;SDS011;18066;52.106;5.534;2022-07-30T05:51:48;18.48;;;10.07;;
18296;SDS011;18066;52.106;5.534;2022-07-30T05:54:15;18.67;;;10.48;;
18296;SDS011;18066;52.106;5.534;2022-07-30T05:56:41;13.43;;;9.68;;
18296;SDS011;18066;52.106;5.534;2022-07-30T05:59:09;12.18;;;10.10;;
18296;SDS011;18066;52.106;5.534;2022-07-30T06:01:36;14.68;;;10.18;;
18296;SDS011;18066;52.106;5.534;2022-07-30T06:04:03;11.90;;;9.30;;
18296;SDS011;18066;52.106;5.534;2022-07-30T06:06:30;14.38;;;11.52;;
18296;SDS011;18066;52.106;5.534;2022-07-30T06:08:56;14.85;;;9.93;;
18296;SDS011;18066;52.106;5.534;2022-07-30T06:11:23;15.77;;;10.82;;
18296;SDS011;18066;52.106;5.534;2022-07-30T06:13:50;13.75;;;10.50;;
18296;SDS011;18066;52.106;5.534;2022-07-30T06:16:18;17.73;;;10.70;;
18296;SDS011;18066;52.106;5.534;2022-07-30T06:18:44;14.32;;;10.35;;
18296;SDS011;18066;52.106;5.534;2022-07-30T06:21:11;15.05;;;9.98;;
18296;SDS011;18066;52.106;5.534;2022-07-30T06:23:38;12.48;;;9.40;;
18296;SDS011;18066;52.106;5.534;2022-07-30T06:26:05;13.40;;;10.23;;
18296;SDS011;18066;52.106;5.534;2022-07-30T06:28:31;15.77;;;9.55;;
18296;SDS011;18066;52.106;5.534;2022-07-30T06:30:58;17.25;;;10.15;;
18296;SDS011;18066;52.106;5.534;2022-07-30T06:33:27;15.93;;;10.35;;
18296;SDS011;18066;52.106;5.534;2022-07-30T06:35:54;13.02;;;9.38;;
18296;SDS011;18066;52.106;5.534;2022-07-30T06:38:21;13.95;;;9.65;;
18296;SDS011;18066;52.106;5.534;2022-07-30T06:40:47;10.63;;;7.65;;
18296;SDS011;18066;52.106;5.534;2022-07-30T06:43:14;10.20;;;6.70;;
18296;SDS011;18066;52.106;5.534;2022-07-30T06:45:43;8.85;;;6.13;;
18296;SDS011;18066;52.106;5.534;2022-07-30T06:48:09;10.35;;;5.68;;
18296;SDS011;18066;52.106;5.534;2022-07-30T06:50:37;8.10;;;4.68;;
18296;SDS011;18066;52.106;5.534;2022-07-30T06:53:05;8.40;;;4.50;;
18296;SDS011;18066;52.106;5.534;2022-07-30T06:55:32;5.40;;;3.80;;
18296;SDS011;18066;52.106;5.534;2022-07-30T06:57:59;9.43;;;4.95;;
18296;SDS011;18066;52.106;5.534;2022-07-30T07:00:25;5.63;;;3.97;;
18296;SDS011;18066;52.106;5.534;2022-07-30T07:02:52;7.05;;;3.88;;
18296;SDS011;18066;52.106;5.534;2022-07-30T07:05:19;7.95;;;3.45;;
18296;SDS011;18066;52.106;5.534;2022-07-30T07:07:48;6.05;;;4.03;;
18296;SDS011;18066;52.106;5.534;2022-07-30T07:10:14;7.20;;;3.90;;
18296;SDS011;18066;52.106;5.534;2022-07-30T07:12:41;7.75;;;2.90;;
18296;SDS011;18066;52.106;5.534;2022-07-30T07:15:08;6.30;;;3.45;;
18296;SDS011;18066;52.106;5.534;2022-07-30T07:17:35;8.30;;;3.03;;
18296;SDS011;18066;52.106;5.534;2022-07-30T07:20:02;6.43;;;2.88;;
18296;SDS011;18066;52.106;5.534;2022-07-30T07:22:29;6.32;;;3.40;;
18296;SDS011;18066;52.106;5.534;2022-07-30T07:24:57;6.18;;;2.85;;
18296;SDS011;18066;52.106;5.534;2022-07-30T07:27:24;4.07;;;2.97;;
18296;SDS011;18066;52.106;5.534;2022-07-30T07:29:51;5.28;;;2.90;;
18296;SDS011;18066;52.106;5.534;2022-07-30T07:32:18;5.93;;;3.22;;
18296;SDS011;18066;52.106;5.534;2022-07-30T07:34:44;3.88;;;2.63;;
18296;SDS011;18066;52.106;5.534;2022-07-30T07:37:11;10.35;;;2.47;;
18296;SDS011;18066;52.106;5.534;2022-07-30T07:39:39;4.15;;;2.00;;
18296;SDS011;18066;52.106;5.534;2022-07-30T07:42:07;4.90;;;2.28;;
18296;SDS011;18066;52.106;5.534;2022-07-30T07:44:34;8.00;;;2.08;;
18296;SDS011;18066;52.106;5.534;2022-07-30T07:47:01;3.28;;;1.92;;
18296;SDS011;18066;52.106;5.534;2022-07-30T07:49:27;3.08;;;2.38;;
18296;SDS011;18066;52.106;5.534;2022-07-30T07:51:54;6.72;;;2.38;;
18296;SDS011;18066;52.106;5.534;2022-07-30T07:54:21;5.82;;;2.00;;
18296;SDS011;18066;52.106;5.534;2022-07-30T07:56:47;2.90;;;1.85;;
18296;SDS011;18066;52.106;5.534;2022-07-30T07:59:16;9.50;;;2.72;;
18296;SDS011;18066;52.106;5.534;2022-07-30T08:01:43;3.28;;;2.42;;
18296;SDS011;18066;52.106;5.534;2022-07-30T08:04:11;2.50;;;2.08;;
18296;SDS011;18066;52.106;5.534;2022-07-30T08:06:38;4.38;;;2.05;;
18296;SDS011;18066;52.106;5.534;2022-07-30T08:09:05;5.85;;;2.03;;
18296;SDS011;18066;52.106;5.534;2022-07-30T08:11:31;4.07;;;2.30;;
18296;SDS011;18066;52.106;5.534;2022-07-30T08:13:58;4.50;;;2.45;;
18296;SDS011;18066;52.106;5.534;2022-07-30T08:16:26;3.72;;;2.20;;
18296;SDS011;18066;52.106;5.534;2022-07-30T08:18:53;4.85;;;2.15;;
18296;SDS011;18066;52.106;5.534;2022-07-30T08:21:20;2.70;;;1.70;;
18296;SDS011;18066;52.106;5.534;2022-07-30T08:23:47;3.72;;;1.90;;
18296;SDS011;18066;52.106;5.534;2022-07-30T08:26:13;3.67;;;1.75;;
18296;SDS011;18066;52.106;5.534;2022-07-30T08:28:40;4.93;;;1.92;;
18296;SDS011;18066;52.106;5.534;2022-07-30T08:31:08;4.38;;;2.08;;
18296;SDS011;18066;52.106;5.534;2022-07-30T08:33:36;3.38;;;1.60;;
18296;SDS011;18066;52.106;5.534;2022-07-30T08:36:02;4.45;;;1.70;;
18296;SDS011;18066;52.106;5.534;2022-07-30T08:38:29;3.70;;;1.55;;
18296;SDS011;18066;52.106;5.534;2022-07-30T08:40:56;5.15;;;1.95;;
18296;SDS011;18066;52.106;5.534;2022-07-30T08:43:23;5.25;;;2.38;;
18296;SDS011;18066;52.106;5.534;2022-07-30T08:45:51;4.32;;;1.80;;
18296;SDS011;18066;52.106;5.534;2022-07-30T08:48:19;5.32;;;1.63;;
18296;SDS011;18066;52.106;5.534;2022-07-30T08:50:47;4.47;;;1.92;;
18296;SDS011;18066;52.106;5.534;2022-07-30T08:53:16;3.85;;;1.65;;
18296;SDS011;18066;52.106;5.534;2022-07-30T08:55:43;6.45;;;1.92;;
18296;SDS011;18066;52.106;5.534;2022-07-30T08:58:12;2.03;;;1.40;;
18296;SDS011;18066;52.106;5.534;2022-07-30T09:00:48;2.83;;;1.40;;
18296;SDS011;18066;52.106;5.534;2022-07-30T09:03:15;2.20;;;1.30;;
18296;SDS011;18066;52.106;5.534;2022-07-30T09:05:42;5.53;;;1.80;;
18296;SDS011;18066;52.106;5.534;2022-07-30T09:08:10;3.33;;;1.83;;
18296;SDS011;18066;52.106;5.534;2022-07-30T09:10:37;3.83;;;1.65;;
18296;SDS011;18066;52.106;5.534;2022-07-30T09:13:04;3.72;;;1.52;;
18296;SDS011;18066;52.106;5.534;2022-07-30T09:15:30;3.15;;;1.45;;
18296;SDS011;18066;52.106;5.534;2022-07-30T09:17:59;3.20;;;1.38;;
18296;SDS011;18066;52.106;5.534;2022-07-30T09:20:27;5.65;;;1.80;;
18296;SDS011;18066;52.106;5.534;2022-07-30T09:22:55;2.22;;;1.40;;
18296;SDS011;18066;52.106;5.534;2022-07-30T09:25:34;5.03;;;2.13;;
18296;SDS011;18066;52.106;5.534;2022-07-30T09:28:02;3.17;;;1.75;;
18296;SDS011;18066;52.106;5.534;2022-07-30T09:30:46;2.53;;;1.50;;
18296;SDS011;18066;52.106;5.534;2022-07-30T09:33:14;2.95;;;1.65;;
18296;SDS011;18066;52.106;5.534;2022-07-30T09:35:55;5.20;;;1.50;;
18296;SDS011;18066;52.106;5.534;2022-07-30T09:38:22;2.67;;;1.38;;
18296;SDS011;18066;52.106;5.534;2022-07-30T09:40:51;4.95;;;1.52;;
18296;SDS011;18066;52.106;5.534;2022-07-30T09:43:19;2.58;;;1.20;;
18296;SDS011;18066;52.106;5.534;2022-07-30T09:45:49;5.10;;;1.77;;
18296;SDS011;18066;52.106;5.534;2022-07-30T09:48:20;3.47;;;1.33;;
18296;SDS011;18066;52.106;5.534;2022-07-30T09:50:49;2.38;;;1.60;;
18296;SDS011;18066;52.106;5.534;2022-07-30T09:53:17;4.18;;;2.03;;
18296;SDS011;18066;52.106;5.534;2022-07-30T09:55:46;4.38;;;1.75;;
18296;SDS011;18066;52.106;5.534;2022-07-30T09:58:15;3.53;;;1.70;;
18296;SDS011;18066;52.106;5.534;2022-07-30T10:00:42;2.40;;;1.88;;
18296;SDS011;18066;52.106;5.534;2022-07-30T10:03:16;5.03;;;2.15;;
18296;SDS011;18066;52.106;5.534;2022-07-30T10:05:50;3.20;;;2.03;;
18296;SDS011;18066;52.106;5.534;2022-07-30T10:08:17;3.55;;;1.73;;
18296;SDS011;18066;52.106;5.534;2022-07-30T10:10:45;5.38;;;1.90;;
18296;SDS011;18066;52.106;5.534;2022-07-30T10:13:15;2.63;;;2.30;;
18296;SDS011;18066;52.106;5.534;2022-07-30T10:15:44;3.90;;;1.75;;
18296;SDS011;18066;52.106;5.534;2022-07-30T10:18:11;4.03;;;1.90;;
18296;SDS011;18066;52.106;5.534;2022-07-30T10:20:40;3.45;;;1.67;;
18296;SDS011;18066;52.106;5.534;2022-07-30T10:23:08;4.38;;;1.80;;
18296;SDS011;18066;52.106;5.534;2022-07-30T10:25:36;5.53;;;1.77;;
18296;SDS011;18066;52.106;5.534;2022-07-30T10:28:04;2.92;;;1.73;;
18296;SDS011;18066;52.106;5.534;2022-07-30T10:30:33;3.28;;;1.90;;
18296;SDS011;18066;52.106;5.534;2022-07-30T10:33:00;2.92;;;1.50;;
18296;SDS011;18066;52.106;5.534;2022-07-30T10:35:29;5.75;;;2.10;;
18296;SDS011;18066;52.106;5.534;2022-07-30T10:37:56;2.03;;;1.75;;
18296;SDS011;18066;52.106;5.534;2022-07-30T10:40:25;5.82;;;1.90;;
18296;SDS011;18066;52.106;5.534;2022-07-30T10:46:01;5.55;;;2.08;;
18296;SDS011;18066;52.106;5.534;2022-07-30T10:48:36;3.72;;;1.90;;
18296;SDS011;18066;52.106;5.534;2022-07-30T10:51:03;6.90;;;1.85;;
18296;SDS011;18066;52.106;5.534;2022-07-30T10:53:30;4.55;;;1.90;;
18296;SDS011;18066;52.106;5.534;2022-07-30T10:56:15;2.17;;;1.60;;
18296;SDS011;18066;52.106;5.534;2022-07-30T10:58:55;2.58;;;1.65;;
18296;SDS011;18066;52.106;5.534;2022-07-30T11:04:28;3.97;;;2.40;;
18296;SDS011;18066;52.106;5.534;2022-07-30T11:09:54;3.40;;;1.58;;
18296;SDS011;18066;52.106;5.534;2022-07-30T11:15:20;4.03;;;1.80;;
18296;SDS011;18066;52.106;5.534;2022-07-30T11:18:01;2.40;;;1.23;;
18296;SDS011;18066;52.106;5.534;2022-07-30T11:20:34;4.13;;;1.42;;
18296;SDS011;18066;52.106;5.534;2022-07-30T11:23:07;2.63;;;1.50;;
18296;SDS011;18066;52.106;5.534;2022-07-30T11:25:57;2.75;;;1.75;;
18296;SDS011;18066;52.106;5.534;2022-07-30T11:28:34;7.20;;;1.50;;
18296;SDS011;18066;52.106;5.534;2022-07-30T11:31:03;1.50;;;1.30;;
18296;SDS011;18066;52.106;5.534;2022-07-30T11:33:50;2.75;;;1.60;;
18296;SDS011;18066;52.106;5.534;2022-07-30T11:36:18;1.77;;;1.65;;
18296;SDS011;18066;52.106;5.534;2022-07-30T11:38:49;4.03;;;1.80;;
18296;SDS011;18066;52.106;5.534;2022-07-30T11:41:21;2.78;;;1.48;;
18296;SDS011;18066;52.106;5.534;2022-07-30T11:43:48;2.97;;;1.30;;
18296;SDS011;18066;52.106;5.534;2022-07-30T11:46:50;2.80;;;1.50;;
18296;SDS011;18066;52.106;5.534;2022-07-30T11:49:17;6.60;;;1.60;;
18296;SDS011;18066;52.106;5.534;2022-07-30T11:51:46;2.70;;;1.25;;
18296;SDS011;18066;52.106;5.534;2022-07-30T11:54:14;3.33;;;1.50;;
18296;SDS011;18066;52.106;5.534;2022-07-30T11:56:48;3.78;;;1.60;;
18296;SDS011;18066;52.106;5.534;2022-07-30T11:59:16;5.45;;;1.90;;
18296;SDS011;18066;52.106;5.534;2022-07-30T12:01:47;2.47;;;1.20;;
18296;SDS011;18066;52.106;5.534;2022-07-30T12:04:14;4.68;;;1.58;;
18296;SDS011;18066;52.106;5.534;2022-07-30T12:06:42;2.17;;;1.40;;
18296;SDS011;18066;52.106;5.534;2022-07-30T12:09:11;2.33;;;1.50;;
18296;SDS011;18066;52.106;5.534;2022-07-30T12:11:38;5.13;;;1.63;;
18296;SDS011;18066;52.106;5.534;2022-07-30T12:14:05;4.90;;;1.55;;
18296;SDS011;18066;52.106;5.534;2022-07-30T12:16:31;3.72;;;1.50;;
18296;SDS011;18066;52.106;5.534;2022-07-30T12:19:02;4.38;;;1.52;;
18296;SDS011;18066;52.106;5.534;2022-07-30T12:21:30;4.15;;;1.70;;
18296;SDS011;18066;52.106;5.534;2022-07-30T12:23:57;5.22;;;1.73;;
18296;SDS011;18066;52.106;5.534;2022-07-30T12:26:27;2.78;;;1.17;;
18296;SDS011;18066;52.106;5.534;2022-07-30T12:28:55;1.98;;;1.30;;
18296;SDS011;18066;52.106;5.534;2022-07-30T12:31:23;3.55;;;1.58;;
18296;SDS011;18066;52.106;5.534;2022-07-30T12:33:50;2.97;;;1.63;;
18296;SDS011;18066;52.106;5.534;2022-07-30T12:36:24;2.45;;;1.20;;
18296;SDS011;18066;52.106;5.534;2022-07-30T12:38:52;4.95;;;1.55;;
18296;SDS011;18066;52.106;5.534;2022-07-30T12:41:20;3.95;;;1.30;;
18296;SDS011;18066;52.106;5.534;2022-07-30T12:43:49;2.60;;;1.60;;
18296;SDS011;18066;52.106;5.534;2022-07-30T12:46:17;1.75;;;1.20;;
18296;SDS011;18066;52.106;5.534;2022-07-30T12:48:48;7.57;;;1.50;;
18296;SDS011;18066;52.106;5.534;2022-07-30T12:51:19;2.67;;;1.27;;
18296;SDS011;18066;52.106;5.534;2022-07-30T12:53:48;2.38;;;1.25;;
18296;SDS011;18066;52.106;5.534;2022-07-30T12:56:15;1.85;;;1.15;;
18296;SDS011;18066;52.106;5.534;2022-07-30T12:58:43;3.15;;;1.30;;
18296;SDS011;18066;52.106;5.534;2022-07-30T13:01:12;2.42;;;1.30;;
18296;SDS011;18066;52.106;5.534;2022-07-30T13:03:39;4.25;;;1.33;;
18296;SDS011;18066;52.106;5.534;2022-07-30T13:06:10;1.40;;;1.13;;
18296;SDS011;18066;52.106;5.534;2022-07-30T13:08:48;3.90;;;1.23;;
18296;SDS011;18066;52.106;5.534;2022-07-30T13:11:17;2.70;;;1.20;;
18296;SDS011;18066;52.106;5.534;2022-07-30T13:13:44;2.47;;;1.00;;
18296;SDS011;18066;52.106;5.534;2022-07-30T13:16:13;4.80;;;1.20;;
18296;SDS011;18066;52.106;5.534;2022-07-30T13:18:40;3.17;;;1.50;;
18296;SDS011;18066;52.106;5.534;2022-07-30T13:21:07;2.08;;;1.20;;
18296;SDS011;18066;52.106;5.534;2022-07-30T13:23:34;1.40;;;0.98;;
18296;SDS011;18066;52.106;5.534;2022-07-30T13:26:02;3.42;;;1.35;;
18296;SDS011;18066;52.106;5.534;2022-07-30T13:28:30;2.67;;;1.13;;
18296;SDS011;18066;52.106;5.534;2022-07-30T13:30:58;2.25;;;1.30;;
18296;SDS011;18066;52.106;5.534;2022-07-30T13:33:26;1.33;;;1.00;;
18296;SDS011;18066;52.106;5.534;2022-07-30T13:35:53;5.30;;;1.50;;
18296;SDS011;18066;52.106;5.534;2022-07-30T13:38:20;3.30;;;1.45;;
18296;SDS011;18066;52.106;5.534;2022-07-30T13:40:47;3.78;;;1.38;;
18296;SDS011;18066;52.106;5.534;2022-07-30T13:43:14;1.60;;;1.20;;
18296;SDS011;18066;52.106;5.534;2022-07-30T13:45:40;2.75;;;1.20;;
18296;SDS011;18066;52.106;5.534;2022-07-30T13:48:07;3.78;;;1.20;;
18296;SDS011;18066;52.106;5.534;2022-07-30T13:50:35;2.05;;;1.10;;
18296;SDS011;18066;52.106;5.534;2022-07-30T13:53:02;2.08;;;1.27;;
18296;SDS011;18066;52.106;5.534;2022-07-30T13:55:29;3.72;;;1.10;;
18296;SDS011;18066;52.106;5.534;2022-07-30T13:57:56;2.85;;;1.30;;
18296;SDS011;18066;52.106;5.534;2022-07-30T14:00:23;1.95;;;1.02;;
18296;SDS011;18066;52.106;5.534;2022-07-30T14:02:55;3.28;;;1.30;;
18296;SDS011;18066;52.106;5.534;2022-07-30T14:05:22;3.08;;;1.17;;
18296;SDS011;18066;52.106;5.534;2022-07-30T14:07:51;3.92;;;1.52;;
18296;SDS011;18066;52.106;5.534;2022-07-30T14:10:18;3.22;;;1.10;;
18296;SDS011;18066;52.106;5.534;2022-07-30T14:12:46;2.35;;;1.25;;
18296;SDS011;18066;52.106;5.534;2022-07-30T14:15:13;4.20;;;1.20;;
18296;SDS011;18066;52.106;5.534;2022-07-30T14:17:42;2.00;;;1.10;;
18296;SDS011;18066;52.106;5.534;2022-07-30T14:20:09;3.88;;;1.20;;
18296;SDS011;18066;52.106;5.534;2022-07-30T14:22:36;2.08;;;1.05;;
18296;SDS011;18066;52.106;5.534;2022-07-30T14:25:05;2.85;;;1.30;;
18296;SDS011;18066;52.106;5.534;2022-07-30T14:27:33;1.65;;;1.20;;
18296;SDS011;18066;52.106;5.534;2022-07-30T14:30:00;4.65;;;1.33;;
18296;SDS011;18066;52.106;5.534;2022-07-30T14:32:27;0.80;;;0.80;;
18296;SDS011;18066;52.106;5.534;2022-07-30T14:34:54;2.42;;;1.25;;
18296;SDS011;18066;52.106;5.534;2022-07-30T14:37:20;3.15;;;1.00;;
18296;SDS011;18066;52.106;5.534;2022-07-30T14:39:47;2.25;;;1.25;;
18296;SDS011;18066;52.106;5.534;2022-07-30T14:42:15;2.45;;;1.25;;
18296;SDS011;18066;52.106;5.534;2022-07-30T14:44:44;1.42;;;1.00;;
18296;SDS011;18066;52.106;5.534;2022-07-30T14:47:11;3.08;;;1.20;;
18296;SDS011;18066;52.106;5.534;2022-07-30T14:49:38;2.30;;;1.30;;
18296;SDS011;18066;52.106;5.534;2022-07-30T14:52:05;1.83;;;1.02;;
18296;SDS011;18066;52.106;5.534;2022-07-30T14:54:32;3.28;;;1.23;;
18296;SDS011;18066;52.106;5.534;2022-07-30T14:56:58;1.75;;;0.93;;
18296;SDS011;18066;52.106;5.534;2022-07-30T14:59:27;2.75;;;1.27;;
18296;SDS011;18066;52.106;5.534;2022-07-30T15:01:53;1.42;;;1.08;;
18296;SDS011;18066;52.106;5.534;2022-07-30T15:04:20;3.47;;;1.20;;